LFOT/TUF METAR and TAF weather

Enter ICAO airport designator
Station Type Date Time Source
LFOT METAR 2019/08/24 20:30 UTC NOAA

LFOT 242030Z AUTO 03003KT 350V070 CAVOK 25/08 Q1016 NOSIG


Station Type Date Time Source
LFOT Decoded METAR 2019/08/24 20:30 UTC NOAA

Station name not available
Aug 24, 2019 - 04:30 PM EDT / 2019.08.24 2030 UTC
Wind: from the NNE (030 degrees) at 3 MPH (3 KT) (direction variable):0
Visibility: greater than 7 mile(s):0
Temperature: 77 F (25 C)
Dew Point: 46 F (8 C)
Relative Humidity: 33%
Pressure (altimeter): 30.00 in. Hg (1016 hPa)
ob: LFOT 242030Z AUTO 03003KT 350V070 CAVOK 25/08 Q1016 NOSIG
cycle: 20

Station Type Date Time Source
LFOT TAF 2019/08/24 18:21 UTC NOAA

TAF LFOT 241700Z 2418/2518 VRB03KT CAVOK

Example: see airport list